Time;durP1;ratioP1;P1;durP2;ratioP2;P2;SDS_P1;SDS_P2;PMS_P1;PMS_P2;Temp;Humidity;BMP_temperature;BMP_pressure;BME280_temperature;BME280_humidity;BME280_pressure;Samples;Min_cycle;Max_cycle;Signal;HPM_P1;HPM_P2
2023/01/10 00:02:25;;;;;;;1.33;0.70;;;;;;;;;;5076468;28;20102;-79
2023/01/10 00:05:10;;;;;;;2.50;1.45;;;;;;;;;;5075959;28;20043;-77
2023/01/10 00:07:57;;;;;;;1.92;0.80;;;;;;;;;;5075900;28;20533;-81
2023/01/10 00:10:43;;;;;;;2.72;0.70;;;;;;;;;;5075524;28;20036;-76
2023/01/10 00:13:28;;;;;;;4.82;1.00;;;;;;;;;;5090458;28;20027;-76
2023/01/10 00:16:13;;;;;;;2.83;1.00;;;;;;;;;;5094449;28;20471;-76
2023/01/10 00:18:58;;;;;;;6.20;1.45;;;;;;;;;;5062900;28;20040;-85
2023/01/10 00:21:44;;;;;;;0.98;0.60;;;;;;;;;;5083068;28;20218;-76
2023/01/10 00:24:29;;;;;;;2.08;0.85;;;;;;;;;;5065623;28;20043;-76
2023/01/10 00:27:19;;;;;;;1.67;0.80;;;;;;;;;;5075587;28;20027;-75
2023/01/10 00:30:23;;;;;;;1.85;1.02;;;;;;;;;;5089727;28;20123;-75
2023/01/10 00:33:11;;;;;;;2.38;0.60;;;;;;;;;;5075788;28;20039;-76
2023/01/10 00:35:56;;;;;;;1.20;0.60;;;;;;;;;;5089320;28;20076;-75
2023/01/10 00:38:42;;;;;;;1.15;0.68;;;;;;;;;;5089533;28;20383;-74
2023/01/10 00:44:31;;;;;;;1.75;0.70;;;;;;;;;;5062498;28;20032;-74
2023/01/10 00:47:17;;;;;;;2.70;0.90;;;;;;;;;;5075607;28;20055;-76
2023/01/10 00:50:04;;;;;;;1.15;0.70;;;;;;;;;;5086772;28;20035;-74
2023/01/10 00:52:50;;;;;;;0.70;0.70;;;;;;;;;;5092933;28;20028;-74
2023/01/10 00:55:35;;;;;;;0.77;0.63;;;;;;;;;;5092364;28;20024;-73
2023/01/10 00:58:21;;;;;;;1.65;0.82;;;;;;;;;;5075223;28;20061;-71
2023/01/10 01:01:06;;;;;;;2.35;1.38;;;;;;;;;;5074529;28;20165;-72
2023/01/10 01:03:51;;;;;;;1.42;0.80;;;;;;;;;;5075194;28;20032;-71
2023/01/10 01:06:36;;;;;;;0.93;0.80;;;;;;;;;;5086333;28;20031;-72
2023/01/10 01:09:22;;;;;;;1.00;0.80;;;;;;;;;;5074064;28;20028;-72
2023/01/10 01:12:07;;;;;;;1.23;0.80;;;;;;;;;;5062811;28;20421;-72
2023/01/10 01:14:52;;;;;;;1.75;0.80;;;;;;;;;;5079391;28;20028;-84
2023/01/10 01:17:38;;;;;;;1.77;1.52;;;;;;;;;;5053949;28;20033;-68
2023/01/10 01:20:23;;;;;;;2.97;1.20;;;;;;;;;;5072213;28;20372;-68
2023/01/10 01:23:09;;;;;;;1.00;0.82;;;;;;;;;;5087391;28;20089;-68
2023/01/10 01:25:54;;;;;;;1.52;0.90;;;;;;;;;;5076775;28;20023;-68
2023/01/10 01:28:40;;;;;;;0.80;0.80;;;;;;;;;;5088952;28;20101;-68
2023/01/10 01:31:25;;;;;;;2.95;0.80;;;;;;;;;;5073207;28;20086;-71
2023/01/10 01:34:10;;;;;;;2.70;0.80;;;;;;;;;;5075005;28;20068;-83
2023/01/10 01:36:57;;;;;;;1.17;0.80;;;;;;;;;;5087638;28;20735;-85
2023/01/10 01:39:43;;;;;;;1.15;0.60;;;;;;;;;;5074262;28;20035;-85
2023/01/10 01:42:30;;;;;;;1.63;0.63;;;;;;;;;;5074647;28;20024;-84
2023/01/10 01:45:21;;;;;;;0.80;0.70;;;;;;;;;;5074432;28;20039;-85
2023/01/10 01:48:15;;;;;;;0.65;0.60;;;;;;;;;;5076179;28;20040;-83
2023/01/10 01:51:13;;;;;;;0.60;0.60;;;;;;;;;;5073611;28;20475;-76
2023/01/10 01:54:02;;;;;;;1.27;0.70;;;;;;;;;;5086882;28;20317;-67
2023/01/10 01:56:53;;;;;;;0.82;0.60;;;;;;;;;;5074734;28;20032;-66
2023/01/10 01:59:40;;;;;;;1.10;0.60;;;;;;;;;;5070714;28;20036;-66
2023/01/10 02:02:29;;;;;;;0.85;0.75;;;;;;;;;;5074003;28;20035;-67
2023/01/10 02:05:16;;;;;;;0.50;0.50;;;;;;;;;;5087024;28;20089;-66
2023/01/10 02:08:01;;;;;;;0.75;0.70;;;;;;;;;;5067457;28;20231;-74
2023/01/10 02:11:12;;;;;;;1.60;0.85;;;;;;;;;;5074539;28;20030;-67
2023/01/10 02:13:58;;;;;;;0.60;0.60;;;;;;;;;;5081586;28;20089;-68
2023/01/10 02:16:43;;;;;;;1.48;0.68;;;;;;;;;;5082491;28;20019;-69
2023/01/10 02:19:47;;;;;;;1.23;0.60;;;;;;;;;;5094758;28;20039;-69
2023/01/10 02:22:41;;;;;;;0.63;0.63;;;;;;;;;;5052947;28;20085;-71
2023/01/10 02:25:32;;;;;;;3.75;1.00;;;;;;;;;;5086628;28;20028;-69
2023/01/10 02:28:27;;;;;;;1.23;0.85;;;;;;;;;;5092297;28;20031;-66
2023/01/10 02:31:30;;;;;;;1.95;0.75;;;;;;;;;;5080823;28;20044;-67
2023/01/10 02:34:23;;;;;;;0.98;0.90;;;;;;;;;;5093471;28;20032;-67
2023/01/10 02:37:24;;;;;;;1.25;0.70;;;;;;;;;;5061408;28;20475;-66
2023/01/10 02:40:09;;;;;;;0.60;0.60;;;;;;;;;;5087514;28;20534;-66
2023/01/10 02:42:57;;;;;;;1.60;0.82;;;;;;;;;;5086887;28;20359;-65
2023/01/10 02:45:42;;;;;;;2.70;1.15;;;;;;;;;;5074995;28;20130;-72
2023/01/10 02:48:27;;;;;;;1.45;0.85;;;;;;;;;;5090518;28;20032;-84
2023/01/10 02:51:13;;;;;;;1.10;0.70;;;;;;;;;;5093660;28;20027;-83
2023/01/10 02:54:01;;;;;;;4.43;0.88;;;;;;;;;;5093585;28;20116;-87
2023/01/10 02:57:01;;;;;;;1.05;0.70;;;;;;;;;;5092246;28;20595;-85
2023/01/10 02:59:47;;;;;;;1.45;0.90;;;;;;;;;;5086998;28;20020;-84
2023/01/10 03:02:36;;;;;;;0.98;0.68;;;;;;;;;;5088422;28;20028;-75
2023/01/10 03:05:25;;;;;;;0.65;0.63;;;;;;;;;;5088262;28;20039;-68
2023/01/10 03:08:13;;;;;;;1.75;0.70;;;;;;;;;;5095004;28;20044;-83
2023/01/10 03:11:00;;;;;;;0.73;0.68;;;;;;;;;;5081566;28;20110;-83
2023/01/10 03:13:45;;;;;;;2.20;0.80;;;;;;;;;;5080895;28;20038;-83
2023/01/10 03:16:31;;;;;;;0.98;0.88;;;;;;;;;;5090924;28;20044;-82
2023/01/10 03:19:18;;;;;;;2.60;1.00;;;;;;;;;;5095613;28;20036;-82
2023/01/10 03:22:05;;;;;;;1.85;0.93;;;;;;;;;;5076265;28;20491;-74
2023/01/10 03:24:53;;;;;;;4.00;1.98;;;;;;;;;;5068528;28;20036;-71
2023/01/10 03:27:38;;;;;;;3.00;1.10;;;;;;;;;;5085897;28;20034;-73
2023/01/10 03:30:33;;;;;;;2.25;1.05;;;;;;;;;;5085639;28;22321;-72
2023/01/10 03:33:22;;;;;;;4.38;1.95;;;;;;;;;;5075170;28;20043;-72
2023/01/10 03:36:21;;;;;;;7.17;1.57;;;;;;;;;;5086197;28;20043;-71
2023/01/10 03:39:06;;;;;;;5.55;1.73;;;;;;;;;;5069450;28;20496;-68
2023/01/10 03:41:54;;;;;;;16.40;1.88;;;;;;;;;;5083606;28;20024;-66
2023/01/10 03:44:57;;;;;;;5.32;1.65;;;;;;;;;;5096761;28;20035;-76
2023/01/10 03:47:45;;;;;;;6.72;2.35;;;;;;;;;;5090637;28;20035;-75
2023/01/10 03:50:31;;;;;;;2.17;1.33;;;;;;;;;;5071906;28;20031;-76
2023/01/10 03:53:17;;;;;;;2.67;1.70;;;;;;;;;;5080579;28;20023;-75
2023/01/10 03:56:02;;;;;;;4.25;1.88;;;;;;;;;;5090170;28;20016;-75
2023/01/10 03:58:47;;;;;;;4.65;1.60;;;;;;;;;;5070626;28;20043;-68
2023/01/10 04:01:33;;;;;;;4.97;1.30;;;;;;;;;;5082588;28;20100;-69
2023/01/10 04:04:18;;;;;;;4.43;1.77;;;;;;;;;;5097658;28;20040;-66
2023/01/10 04:07:03;;;;;;;2.58;1.33;;;;;;;;;;5083655;28;20039;-66
2023/01/10 04:09:48;;;;;;;7.47;1.52;;;;;;;;;;5096901;28;20039;-65
2023/01/10 04:12:34;;;;;;;2.33;1.13;;;;;;;;;;5082223;28;20030;-65
2023/01/10 04:15:19;;;;;;;3.13;1.05;;;;;;;;;;5096419;28;20088;-65
2023/01/10 04:18:04;;;;;;;1.23;0.88;;;;;;;;;;5096407;28;20490;-68
2023/01/10 04:20:49;;;;;;;3.85;1.33;;;;;;;;;;5095311;28;20031;-68
2023/01/10 04:23:35;;;;;;;3.80;1.65;;;;;;;;;;5070729;28;20039;-67
2023/01/10 04:26:20;;;;;;;6.53;1.52;;;;;;;;;;5094243;28;20409;-71
2023/01/10 04:29:05;;;;;;;6.28;1.70;;;;;;;;;;5090741;28;20040;-68
2023/01/10 04:31:50;;;;;;;6.25;1.85;;;;;;;;;;5071224;28;20488;-70
2023/01/10 04:34:35;;;;;;;3.10;1.20;;;;;;;;;;5095809;28;20024;-85
2023/01/10 04:37:21;;;;;;;5.07;1.20;;;;;;;;;;5088267;28;20032;-70
2023/01/10 04:40:06;;;;;;;4.25;1.45;;;;;;;;;;5097288;28;20042;-72
2023/01/10 04:42:52;;;;;;;3.78;1.40;;;;;;;;;;5092241;28;20031;-73
2023/01/10 04:45:37;;;;;;;5.63;1.75;;;;;;;;;;5087985;28;20047;-73
2023/01/10 04:48:22;;;;;;;7.47;1.60;;;;;;;;;;5089888;28;20024;-75
2023/01/10 04:51:08;;;;;;;4.40;1.50;;;;;;;;;;5086007;28;20051;-74
2023/01/10 04:53:53;;;;;;;5.18;1.73;;;;;;;;;;5072779;28;20019;-68
2023/01/10 04:56:39;;;;;;;7.30;2.45;;;;;;;;;;5090728;28;20145;-65
2023/01/10 04:59:24;;;;;;;3.90;1.60;;;;;;;;;;5075829;28;20107;-66
2023/01/10 05:02:09;;;;;;;4.30;1.50;;;;;;;;;;5081560;28;20032;-64
2023/01/10 05:04:54;;;;;;;4.57;1.48;;;;;;;;;;5093199;28;20051;-64
2023/01/10 05:07:40;;;;;;;3.33;1.42;;;;;;;;;;5076252;28;20019;-66
2023/01/10 05:10:25;;;;;;;3.80;1.50;;;;;;;;;;5103344;28;20039;-64
2023/01/10 05:13:10;;;;;;;7.32;1.55;;;;;;;;;;5084982;28;20031;-76
2023/01/10 05:15:56;;;;;;;6.70;1.95;;;;;;;;;;5093680;28;20028;-70
2023/01/10 05:18:42;;;;;;;6.35;1.90;;;;;;;;;;5087102;28;20035;-68
2023/01/10 05:21:27;;;;;;;6.25;1.90;;;;;;;;;;5089514;28;20103;-69
2023/01/10 05:24:12;;;;;;;7.28;2.65;;;;;;;;;;5081975;28;20134;-67
2023/01/10 05:26:57;;;;;;;7.50;1.80;;;;;;;;;;5084784;28;20038;-68
2023/01/10 05:29:43;;;;;;;5.85;1.67;;;;;;;;;;5091576;28;20028;-73
2023/01/10 05:32:28;;;;;;;4.57;1.67;;;;;;;;;;5088383;28;20122;-77
2023/01/10 05:35:13;;;;;;;8.40;3.08;;;;;;;;;;5090046;28;20473;-69
2023/01/10 05:37:59;;;;;;;6.53;1.98;;;;;;;;;;5078185;28;20035;-70
2023/01/10 05:40:44;;;;;;;5.72;1.83;;;;;;;;;;5080221;28;20035;-71
2023/01/10 05:43:29;;;;;;;12.68;2.58;;;;;;;;;;5086237;28;20038;-70
2023/01/10 05:46:14;;;;;;;5.85;1.83;;;;;;;;;;5082569;28;21315;-69
2023/01/10 05:48:59;;;;;;;10.32;2.75;;;;;;;;;;5088697;28;20027;-71
2023/01/10 05:51:45;;;;;;;7.60;1.98;;;;;;;;;;5079147;28;20023;-75
2023/01/10 05:54:30;;;;;;;8.40;2.53;;;;;;;;;;5094458;28;20043;-76
2023/01/10 05:57:15;;;;;;;6.20;2.10;;;;;;;;;;5071570;28;20042;-75
2023/01/10 06:00:01;;;;;;;9.27;3.75;;;;;;;;;;5082632;28;20462;-75
2023/01/10 06:02:46;;;;;;;7.72;2.10;;;;;;;;;;5078751;28;20046;-75
2023/01/10 06:05:31;;;;;;;9.18;1.92;;;;;;;;;;5089018;28;20115;-75
2023/01/10 06:08:16;;;;;;;9.75;2.05;;;;;;;;;;5088318;28;20035;-78
2023/01/10 06:11:02;;;;;;;9.60;2.65;;;;;;;;;;5075722;28;20529;-66
2023/01/10 06:13:52;;;;;;;9.52;2.40;;;;;;;;;;5068161;28;20355;-68
2023/01/10 06:16:37;;;;;;;8.00;2.17;;;;;;;;;;5073436;28;20036;-67
2023/01/10 06:19:23;;;;;;;10.07;2.90;;;;;;;;;;5073790;28;20474;-66
2023/01/10 06:22:08;;;;;;;7.15;1.88;;;;;;;;;;5087474;28;20127;-67
2023/01/10 06:24:56;;;;;;;7.95;2.38;;;;;;;;;;5073389;28;20055;-70
2023/01/10 06:27:42;;;;;;;10.65;2.88;;;;;;;;;;5073175;28;20118;-75
2023/01/10 06:30:27;;;;;;;6.00;2.42;;;;;;;;;;5073555;28;20442;-71
2023/01/10 06:33:13;;;;;;;7.93;2.17;;;;;;;;;;5073491;28;20038;-69
2023/01/10 06:35:58;;;;;;;7.15;1.70;;;;;;;;;;5073588;28;20040;-70
2023/01/10 06:38:43;;;;;;;7.90;2.50;;;;;;;;;;5073303;28;20034;-69
2023/01/10 06:41:28;;;;;;;7.72;2.55;;;;;;;;;;5073358;28;20107;-69
2023/01/10 06:44:14;;;;;;;6.90;1.83;;;;;;;;;;5074142;28;20039;-77
2023/01/10 06:46:59;;;;;;;5.30;2.42;;;;;;;;;;5079425;28;20031;-74
2023/01/10 06:49:44;;;;;;;6.90;2.15;;;;;;;;;;5075466;28;20020;-74
2023/01/10 06:52:29;;;;;;;9.80;2.80;;;;;;;;;;5061001;28;20514;-74
2023/01/10 06:55:15;;;;;;;6.10;2.80;;;;;;;;;;5073233;28;20093;-73
2023/01/10 06:58:02;;;;;;;8.75;2.88;;;;;;;;;;5065192;28;20050;-75
2023/01/10 07:00:47;;;;;;;14.77;3.47;;;;;;;;;;5059833;28;20593;-73
2023/01/10 07:03:32;;;;;;;12.18;2.08;;;;;;;;;;5083497;28;20035;-79
2023/01/10 07:06:17;;;;;;;10.25;2.78;;;;;;;;;;5093094;28;20039;-74
2023/01/10 07:09:03;;;;;;;6.45;1.88;;;;;;;;;;5094938;28;20022;-74
2023/01/10 07:11:48;;;;;;;6.75;2.58;;;;;;;;;;5080206;28;20036;-75
2023/01/10 07:14:33;;;;;;;4.07;2.22;;;;;;;;;;5070468;28;20489;-73
2023/01/10 07:17:18;;;;;;;6.72;2.10;;;;;;;;;;5088093;28;20024;-73
2023/01/10 07:20:04;;;;;;;6.85;2.30;;;;;;;;;;5098893;28;20042;-73
2023/01/10 07:22:59;;;;;;;7.95;2.38;;;;;;;;;;5092390;28;20558;-70
2023/01/10 07:25:44;;;;;;;7.35;1.92;;;;;;;;;;5096919;28;20035;-76
2023/01/10 07:28:30;;;;;;;9.00;2.55;;;;;;;;;;5091801;28;20478;-78
2023/01/10 07:31:16;;;;;;;6.65;2.05;;;;;;;;;;5096398;28;20070;-78
2023/01/10 07:34:01;;;;;;;5.53;1.60;;;;;;;;;;5089860;28;20209;-77
2023/01/10 07:36:46;;;;;;;6.05;2.25;;;;;;;;;;5082915;28;20482;-78
2023/01/10 07:39:32;;;;;;;8.88;2.25;;;;;;;;;;5074892;28;20479;-67
2023/01/10 07:42:17;;;;;;;8.15;2.63;;;;;;;;;;5093275;28;20085;-73
2023/01/10 07:45:02;;;;;;;4.65;1.98;;;;;;;;;;5096580;28;20460;-76
2023/01/10 07:47:47;;;;;;;8.18;2.20;;;;;;;;;;5086009;28;20040;-75
2023/01/10 07:50:33;;;;;;;8.65;2.95;;;;;;;;;;5078201;28;20481;-74
2023/01/10 07:53:18;;;;;;;4.43;1.60;;;;;;;;;;5086577;28;20102;-75
2023/01/10 07:56:04;;;;;;;6.57;2.42;;;;;;;;;;5082553;28;20358;-73
2023/01/10 07:58:49;;;;;;;10.65;2.45;;;;;;;;;;5088013;28;20089;-76
2023/01/10 08:01:34;;;;;;;9.75;2.25;;;;;;;;;;5088713;28;20037;-84
2023/01/10 08:04:20;;;;;;;7.85;2.42;;;;;;;;;;5083139;28;20482;-84
2023/01/10 08:07:05;;;;;;;10.98;2.65;;;;;;;;;;5095758;28;20046;-83
2023/01/10 08:09:50;;;;;;;5.57;1.73;;;;;;;;;;5066006;28;20139;-85
2023/01/10 08:12:35;;;;;;;4.03;1.83;;;;;;;;;;5086591;28;20110;-83
2023/01/10 08:15:21;;;;;;;10.60;2.17;;;;;;;;;;5075710;28;20351;-78
2023/01/10 08:18:06;;;;;;;10.20;2.30;;;;;;;;;;5086059;28;20097;-76
2023/01/10 08:20:52;;;;;;;6.97;2.22;;;;;;;;;;5099452;28;20115;-80
2023/01/10 08:23:37;;;;;;;10.77;3.03;;;;;;;;;;5096715;28;20130;-79
2023/01/10 08:26:22;;;;;;;8.85;2.58;;;;;;;;;;5095958;28;20074;-77
2023/01/10 08:29:08;;;;;;;7.45;2.40;;;;;;;;;;5094126;28;20061;-79
2023/01/10 08:31:53;;;;;;;10.32;2.90;;;;;;;;;;5090285;28;20031;-77
2023/01/10 08:34:38;;;;;;;9.07;2.30;;;;;;;;;;5092214;28;20494;-71
2023/01/10 08:37:24;;;;;;;8.05;2.63;;;;;;;;;;5094505;28;20122;-78
2023/01/10 08:40:09;;;;;;;7.40;2.67;;;;;;;;;;5071562;28;20032;-79
2023/01/10 08:42:56;;;;;;;9.20;2.85;;;;;;;;;;5092208;28;20028;-77
2023/01/10 08:45:41;;;;;;;7.45;2.40;;;;;;;;;;5095735;28;20039;-79
2023/01/10 08:48:26;;;;;;;7.88;1.65;;;;;;;;;;5078198;28;20028;-77
2023/01/10 08:51:11;;;;;;;6.75;2.38;;;;;;;;;;5090068;28;20385;-77
2023/01/10 08:53:57;;;;;;;6.72;2.45;;;;;;;;;;5075602;28;20043;-69
2023/01/10 08:56:42;;;;;;;6.97;2.10;;;;;;;;;;5079188;28;20216;-77
2023/01/10 08:59:27;;;;;;;6.95;2.08;;;;;;;;;;5086515;28;20031;-78
2023/01/10 09:02:12;;;;;;;5.78;2.47;;;;;;;;;;5082046;28;20032;-78
2023/01/10 09:04:58;;;;;;;9.90;2.38;;;;;;;;;;5072928;28;20028;-78
2023/01/10 09:07:45;;;;;;;5.13;2.00;;;;;;;;;;5093296;28;20436;-78
2023/01/10 09:10:30;;;;;;;6.30;2.03;;;;;;;;;;5085568;28;20052;-71
2023/01/10 09:13:15;;;;;;;10.60;3.60;;;;;;;;;;5088759;28;20299;-84
2023/01/10 09:16:00;;;;;;;6.63;2.45;;;;;;;;;;5092899;28;20076;-75
2023/01/10 09:18:46;;;;;;;7.43;1.83;;;;;;;;;;5077768;28;20445;-75
2023/01/10 09:21:31;;;;;;;8.93;2.60;;;;;;;;;;5057443;28;20030;-76
2023/01/10 09:24:16;;;;;;;9.95;2.28;;;;;;;;;;5080715;28;20093;-76
2023/01/10 09:27:02;;;;;;;8.63;2.38;;;;;;;;;;5101074;28;20088;-75
2023/01/10 09:29:47;;;;;;;8.80;3.28;;;;;;;;;;5081831;28;20035;-79
2023/01/10 09:32:32;;;;;;;13.20;2.70;;;;;;;;;;5084952;28;20407;-87
2023/01/10 09:35:17;;;;;;;6.60;2.33;;;;;;;;;;5064886;28;20399;-85
2023/01/10 09:38:03;;;;;;;9.35;2.42;;;;;;;;;;5076063;28;20036;-86
2023/01/10 09:40:49;;;;;;;6.55;2.38;;;;;;;;;;5069353;28;20097;-85
2023/01/10 09:43:53;;;;;;;10.77;2.83;;;;;;;;;;5064636;28;20157;-85
2023/01/10 09:46:46;;;;;;;4.82;1.90;;;;;;;;;;5092974;28;20035;-82
2023/01/10 09:49:50;;;;;;;8.15;2.65;;;;;;;;;;5074648;28;20036;-67
2023/01/10 09:52:42;;;;;;;8.63;2.67;;;;;;;;;;5094850;28;20467;-77
2023/01/10 09:55:29;;;;;;;5.85;3.67;;;;;;;;;;5094532;28;20036;-78
2023/01/10 09:58:16;;;;;;;6.30;2.53;;;;;;;;;;5101454;28;20081;-80
2023/01/10 10:01:04;;;;;;;8.07;2.65;;;;;;;;;;5088431;28;20121;-78
2023/01/10 10:04:06;;;;;;;6.82;2.13;;;;;;;;;;5088069;28;20031;-78
2023/01/10 10:06:52;;;;;;;10.07;2.85;;;;;;;;;;5081023;28;20043;-70
2023/01/10 10:09:37;;;;;;;7.43;2.17;;;;;;;;;;5083302;28;20266;-84
2023/01/10 10:12:39;;;;;;;10.15;2.85;;;;;;;;;;5077163;28;20158;-85
2023/01/10 10:15:33;;;;;;;6.53;2.10;;;;;;;;;;5087945;28;20050;-83
2023/01/10 10:18:37;;;;;;;7.28;2.17;;;;;;;;;;5087470;28;20122;-85
2023/01/10 10:21:41;;;;;;;4.32;2.17;;;;;;;;;;5059174;28;20473;-85
2023/01/10 10:24:36;;;;;;;7.65;2.05;;;;;;;;;;5083910;28;20592;-66
2023/01/10 10:27:23;;;;;;;8.73;2.78;;;;;;;;;;5079991;28;20070;-71
2023/01/10 10:30:20;;;;;;;5.65;1.73;;;;;;;;;;5079344;28;20330;-70
2023/01/10 10:33:22;;;;;;;3.78;1.80;;;;;;;;;;5068574;28;20554;-69
2023/01/10 10:36:14;;;;;;;4.93;1.40;;;;;;;;;;5089813;28;20040;-72
2023/01/10 10:39:00;;;;;;;8.23;2.17;;;;;;;;;;5087100;28;20145;-70
2023/01/10 10:41:47;;;;;;;4.47;2.03;;;;;;;;;;5066904;28;20030;-66
2023/01/10 10:44:32;;;;;;;6.55;1.63;;;;;;;;;;5084033;28;20177;-73
2023/01/10 10:47:18;;;;;;;5.13;1.67;;;;;;;;;;5087962;28;20024;-68
2023/01/10 10:50:13;;;;;;;5.40;1.70;;;;;;;;;;5080039;28;20393;-66
2023/01/10 10:53:00;;;;;;;8.15;2.67;;;;;;;;;;5093438;28;20036;-66
2023/01/10 10:55:46;;;;;;;3.88;1.55;;;;;;;;;;5083444;28;20054;-65
2023/01/10 10:58:31;;;;;;;6.53;2.05;;;;;;;;;;5091830;28;20028;-66
2023/01/10 11:01:17;;;;;;;6.75;2.25;;;;;;;;;;5084833;28;20023;-74
2023/01/10 11:04:14;;;;;;;7.80;2.00;;;;;;;;;;5091525;28;20441;-69
2023/01/10 11:06:59;;;;;;;4.05;1.90;;;;;;;;;;5093402;28;20040;-70
2023/01/10 11:12:59;;;;;;;4.47;1.23;;;;;;;;;;5053822;28;20035;-69
2023/01/10 11:15:45;;;;;;;4.57;1.50;;;;;;;;;;5090534;28;20053;-71
2023/01/10 11:18:31;;;;;;;4.95;1.83;;;;;;;;;;5075895;28;20176;-70
2023/01/10 11:21:16;;;;;;;7.22;1.63;;;;;;;;;;5065285;28;20486;-73
2023/01/10 11:24:01;;;;;;;4.68;1.45;;;;;;;;;;5072981;28;20039;-66
2023/01/10 11:26:47;;;;;;;5.90;2.63;;;;;;;;;;5092909;28;20046;-66
2023/01/10 11:29:38;;;;;;;6.97;1.33;;;;;;;;;;5088779;28;20466;-67
2023/01/10 11:32:29;;;;;;;6.60;1.40;;;;;;;;;;5084189;28;20047;-66
2023/01/10 11:35:24;;;;;;;6.75;2.30;;;;;;;;;;5078881;28;20027;-67
2023/01/10 11:38:12;;;;;;;7.78;1.90;;;;;;;;;;5092205;28;20057;-73
2023/01/10 11:41:15;;;;;;;3.40;1.60;;;;;;;;;;5073712;28;20031;-69
2023/01/10 11:44:14;;;;;;;5.32;1.75;;;;;;;;;;5088640;28;20483;-68
2023/01/10 11:47:02;;;;;;;7.13;2.35;;;;;;;;;;5063690;28;20502;-68
2023/01/10 11:49:48;;;;;;;8.50;2.22;;;;;;;;;;5076876;28;20562;-70
2023/01/10 11:52:33;;;;;;;7.57;1.80;;;;;;;;;;5092807;28;20032;-68
2023/01/10 11:55:20;;;;;;;5.22;2.42;;;;;;;;;;5089682;28;20044;-69
2023/01/10 11:58:07;;;;;;;6.85;2.15;;;;;;;;;;5082215;28;20077;-82
2023/01/10 12:00:52;;;;;;;8.45;2.15;;;;;;;;;;5064790;28;20039;-68
2023/01/10 12:03:39;;;;;;;8.77;2.05;;;;;;;;;;5094948;28;20039;-68
2023/01/10 12:06:24;;;;;;;5.78;1.88;;;;;;;;;;5083363;28;20102;-68
2023/01/10 12:09:28;;;;;;;7.05;2.00;;;;;;;;;;5093791;28;20677;-68
2023/01/10 12:12:19;;;;;;;5.18;1.70;;;;;;;;;;5092040;28;20041;-69
2023/01/10 12:15:23;;;;;;;5.30;1.90;;;;;;;;;;5086679;28;20036;-69
2023/01/10 12:18:09;;;;;;;5.18;1.55;;;;;;;;;;5069118;28;20104;-70
2023/01/10 12:20:56;;;;;;;9.00;1.90;;;;;;;;;;5082643;28;20032;-71
2023/01/10 12:23:43;;;;;;;5.80;1.80;;;;;;;;;;5093597;28;20088;-69
2023/01/10 12:26:30;;;;;;;4.40;1.20;;;;;;;;;;5082706;28;20035;-69
2023/01/10 12:29:31;;;;;;;4.80;1.50;;;;;;;;;;5093643;28;20023;-71
2023/01/10 12:32:20;;;;;;;5.68;1.83;;;;;;;;;;5065640;28;20034;-69
2023/01/10 12:35:09;;;;;;;7.22;2.15;;;;;;;;;;5071787;28;20027;-74
2023/01/10 12:38:01;;;;;;;8.65;2.05;;;;;;;;;;5103498;28;20035;-65
2023/01/10 12:40:51;;;;;;;6.88;2.00;;;;;;;;;;5093843;28;20458;-66
2023/01/10 12:46:49;;;;;;;7.15;1.65;;;;;;;;;;5079017;28;19957;-66
2023/01/10 12:49:36;;;;;;;3.65;1.80;;;;;;;;;;5078045;28;20039;-66
2023/01/10 12:52:28;;;;;;;6.18;1.40;;;;;;;;;;5095823;28;20028;-73
2023/01/10 12:55:14;;;;;;;4.10;1.60;;;;;;;;;;5081829;28;20032;-73
2023/01/10 12:58:01;;;;;;;10.73;1.92;;;;;;;;;;5095385;28;20035;-73
2023/01/10 13:00:54;;;;;;;6.30;1.75;;;;;;;;;;5075427;28;20070;-73
2023/01/10 13:03:39;;;;;;;9.55;2.47;;;;;;;;;;5094987;28;20031;-74
2023/01/10 13:06:36;;;;;;;5.72;2.10;;;;;;;;;;5085768;28;20078;-73
2023/01/10 13:09:23;;;;;;;6.78;1.50;;;;;;;;;;5098119;28;20179;-74
2023/01/10 13:12:16;;;;;;;8.65;2.85;;;;;;;;;;5090418;28;20097;-74
2023/01/10 13:15:20;;;;;;;1.70;1.10;;;;;;;;;;5089047;28;20533;-74
2023/01/10 13:18:27;;;;;;;3.97;1.40;;;;;;;;;;5081052;28;20063;-74
2023/01/10 13:21:17;;;;;;;18.30;2.33;;;;;;;;;;5084746;28;20118;-74
2023/01/10 13:24:02;;;;;;;;;;;;;;;;;;5092335;28;20026;-76
2023/01/10 13:26:55;;;;;;;4.82;1.92;;;;;;;;;;5084333;28;19919;-76
2023/01/10 13:29:41;;;;;;;6.63;2.33;;;;;;;;;;5079526;28;20028;-82
2023/01/10 13:32:32;;;;;;;7.05;2.10;;;;;;;;;;5078590;28;20120;-85
2023/01/10 13:35:18;;;;;;;9.27;2.30;;;;;;;;;;5077427;28;20067;-83
2023/01/10 13:38:03;;;;;;;7.10;1.88;;;;;;;;;;5092664;28;20134;-85
2023/01/10 13:41:00;;;;;;;6.45;1.65;;;;;;;;;;5085166;28;20020;-83
2023/01/10 13:44:18;;;;;;;7.10;1.90;;;;;;;;;;5061315;28;20031;-83
2023/01/10 13:47:03;;;;;;;8.38;1.55;;;;;;;;;;5040489;28;20075;-73
2023/01/10 13:49:48;;;;;;;7.15;2.35;;;;;;;;;;5076317;28;20019;-83
2023/01/10 13:52:34;;;;;;;7.00;1.80;;;;;;;;;;5075204;28;20092;-84
2023/01/10 13:55:33;;;;;;;11.43;2.90;;;;;;;;;;5060325;28;20044;-85
2023/01/10 14:02:27;;;;;;;4.35;1.33;;;;;;;;;;5063923;28;20513;-84
2023/01/10 14:04:34;;;;;;;7.55;3.10;;;;;;;;;;5071483;28;20031;-84
2023/01/10 14:07:39;;;;;;;5.85;1.60;;;;;;;;;;5088476;28;20466;-77
2023/01/10 14:10:26;;;;;;;5.82;1.88;;;;;;;;;;5083495;28;20071;-77
2023/01/10 14:13:21;;;;;;;7.28;2.80;;;;;;;;;;5098849;28;20045;-77
2023/01/10 14:16:25;;;;;;;7.15;1.98;;;;;;;;;;5087618;28;20031;-75
2023/01/10 14:19:27;;;;;;;7.60;2.10;;;;;;;;;;5076800;28;20110;-77
2023/01/10 14:22:33;;;;;;;6.32;1.65;;;;;;;;;;5085398;28;20042;-77
2023/01/10 14:25:19;;;;;;;9.65;2.47;;;;;;;;;;5073449;28;20032;-76
2023/01/10 14:28:14;;;;;;;10.45;3.03;;;;;;;;;;5065781;28;20034;-74
2023/01/10 14:31:01;;;;;;;6.97;2.15;;;;;;;;;;5086352;28;20027;-73
2023/01/10 14:33:47;;;;;;;8.70;2.13;;;;;;;;;;5075907;28;20020;-73
2023/01/10 14:36:45;;;;;;;6.10;1.60;;;;;;;;;;5085315;28;20031;-74
2023/01/10 14:39:30;;;;;;;6.97;1.95;;;;;;;;;;5092365;28;20042;-75
2023/01/10 14:42:17;;;;;;;7.93;2.13;;;;;;;;;;5073962;28;20064;-74
2023/01/10 14:45:21;;;;;;;8.35;1.73;;;;;;;;;;5076908;28;20032;-85
2023/01/10 14:48:22;;;;;;;3.92;1.63;;;;;;;;;;5075829;28;20024;-82
2023/01/10 14:51:09;;;;;;;2.35;1.50;;;;;;;;;;5077501;28;20563;-87
2023/01/10 14:53:56;;;;;;;8.48;2.42;;;;;;;;;;5068408;28;20035;-84
2023/01/10 14:56:42;;;;;;;6.32;1.70;;;;;;;;;;5082743;28;20042;-84
2023/01/10 14:59:29;;;;;;;8.70;1.55;;;;;;;;;;5066946;28;20047;-85
2023/01/10 15:02:24;;;;;;;6.45;1.65;;;;;;;;;;5076641;28;20501;-73
2023/01/10 15:05:18;;;;;;;4.97;1.73;;;;;;;;;;5092862;28;20028;-77
2023/01/10 15:08:33;;;;;;;4.13;1.73;;;;;;;;;;5062249;28;20506;-77
2023/01/10 15:11:18;;;;;;;4.78;2.15;;;;;;;;;;5080504;28;20051;-77
2023/01/10 15:14:07;;;;;;;4.85;1.92;;;;;;;;;;5089451;28;20036;-77
2023/01/10 15:16:54;;;;;;;3.83;1.52;;;;;;;;;;5085547;28;20089;-77
2023/01/10 15:19:39;;;;;;;7.68;2.45;;;;;;;;;;5070307;28;20019;-73
2023/01/10 15:22:24;;;;;;;5.55;2.05;;;;;;;;;;5086487;28;20032;-83
2023/01/10 15:25:19;;;;;;;5.70;2.13;;;;;;;;;;5090769;28;20035;-83
2023/01/10 15:28:12;;;;;;;7.32;1.88;;;;;;;;;;5049561;28;20035;-84
2023/01/10 15:30:58;;;;;;;6.60;1.77;;;;;;;;;;5076332;28;20115;-84
2023/01/10 15:33:55;;;;;;;9.52;2.03;;;;;;;;;;5065804;28;20028;-84
2023/01/10 15:36:42;;;;;;;7.53;2.60;;;;;;;;;;5083222;28;20551;-82
2023/01/10 15:39:38;;;;;;;11.65;2.75;;;;;;;;;;5095939;28;20028;-68
2023/01/10 15:42:23;;;;;;;6.18;1.75;;;;;;;;;;5085940;28;20036;-86
2023/01/10 15:45:17;;;;;;;8.10;2.15;;;;;;;;;;5091046;28;20067;-83
2023/01/10 15:48:02;;;;;;;10.30;2.58;;;;;;;;;;5078132;28;20023;-83
2023/01/10 15:51:02;;;;;;;7.82;1.70;;;;;;;;;;5091534;28;20478;-83
2023/01/10 15:53:47;;;;;;;;;;;;;;;;;;5072853;28;20066;-85
2023/01/10 15:56:33;;;;;;;7.60;2.42;;;;;;;;;;5089403;28;20362;-68
2023/01/10 15:59:24;;;;;;;4.40;1.77;;;;;;;;;;5093923;28;20032;-83
2023/01/10 16:02:21;;;;;;;7.50;2.00;;;;;;;;;;5092561;28;20090;-82
2023/01/10 16:05:07;;;;;;;4.47;2.00;;;;;;;;;;5096708;28;20250;-81
2023/01/10 16:07:53;;;;;;;7.32;1.90;;;;;;;;;;5084069;28;20059;-82
2023/01/10 16:10:38;;;;;;;8.15;2.25;;;;;;;;;;5080350;28;20024;-84
2023/01/10 16:13:27;;;;;;;7.32;1.98;;;;;;;;;;5087285;28;20110;-83
2023/01/10 16:16:15;;;;;;;4.97;1.90;;;;;;;;;;5063429;28;20055;-83
2023/01/10 16:19:01;;;;;;;8.10;2.57;;;;;;;;;;5077927;28;20036;-73
2023/01/10 16:21:49;;;;;;;6.65;1.77;;;;;;;;;;5093404;28;20494;-75
2023/01/10 16:24:35;;;;;;;9.52;2.63;;;;;;;;;;5094561;28;20031;-75
2023/01/10 16:27:20;;;;;;;7.10;1.67;;;;;;;;;;5082018;28;20482;-74
2023/01/10 16:30:05;;;;;;;4.88;2.25;;;;;;;;;;5073414;28;20112;-72
2023/01/10 16:32:51;;;;;;;8.43;2.20;;;;;;;;;;5085095;28;20058;-82
2023/01/10 16:35:36;;;;;;;6.80;2.03;;;;;;;;;;5096156;28;20038;-72
2023/01/10 16:38:22;;;;;;;5.05;1.60;;;;;;;;;;5078614;28;20051;-72
2023/01/10 16:44:13;;;;;;;8.35;2.75;;;;;;;;;;5095747;28;20023;-73
2023/01/10 16:46:59;;;;;;;4.30;1.80;;;;;;;;;;5075199;28;20051;-73
2023/01/10 16:49:45;;;;;;;12.73;2.60;;;;;;;;;;5079765;28;20105;-75
2023/01/10 16:52:30;;;;;;;8.45;2.95;;;;;;;;;;5094251;28;20042;-70
2023/01/10 16:55:18;;;;;;;10.52;2.55;;;;;;;;;;5099892;28;20023;-81
2023/01/10 16:58:03;;;;;;;14.02;2.85;;;;;;;;;;5077029;28;20044;-84
2023/01/10 17:00:50;;;;;;;5.72;2.10;;;;;;;;;;5079655;28;20142;-83
2023/01/10 17:03:38;;;;;;;8.48;2.28;;;;;;;;;;5089675;28;20408;-84
2023/01/10 17:06:23;;;;;;;7.13;2.33;;;;;;;;;;5091120;28;20024;-85